Mumford, NY (14511)

4:34 AM EST on November 28, 2014 (GMT -0500)
Mumford | Change Station
CLOSE
Current Station
Personal Weather Station
Location: Scottsville, NY
Elevation: 600 ft
Nearby Weather Stations

Elev 600 ft 43.00 °N, 77.85 °W | Updated 6 seconds ago

Overcast
Overcast
25.7 °F
Feels Like 26 °F
N
2.9
Wind Variable Wind from WNW
Gusts 4.9 mph

Today
High -- | Low -- °F
--% Chance of Precip.
Yesterday
High -- | Low -- °F
Precip. -- in
7:19 AM 4:39 PM
Waxing Crescent, 38% visible
Pressure 30.19 in
Visibility 5.0 miles
Clouds Few 1700 ft
Few 3000 ft
Overcast 3700 ft
Windchill 26 °F
Dew Point 11 °F
Humidity 52%
Rainfall 0.00 in
Snow Depth Not available.
UV 0.0 out of 12
Pollen .10 out of 12
Air Quality Not available.
Flu Activity Not available.
METAR KROC 280854Z 30012G22KT 5SM -SN FEW017 FEW030 OVC037 M03/M06 A3016 RMK AO2 SLP223 P0000 60000 T10281056 53011

More Conditions Fewer Conditions

Pressure 30.19 in
Visibility 5.0 miles
Clouds Few 1700 ft
Few 3000 ft
Overcast 3700 ft
Windchill 26 °F
Dew Point 11 °F
Humidity 52%
Rainfall 0.00 in
Snow Depth Not available.
UV 0.0 out of 12
Pollen .10 out of 12
Air Quality Not available.
Flu Activity Not available.
METAR KROC 280854Z 30012G22KT 5SM -SN FEW017 FEW030 OVC037 M03/M06 A3016 RMK AO2 SLP223 P0000 60000 T10281056 53011

More Conditions Fewer Conditions

10-Day Weather Forecast

Almanac

Astronomy

Nov. 28, 2014 Rise Set
Actual Time
Civil Twilight
Nautical Twilight
Astronomical Twilight
Moon
Length of Visible Light
Length of Day
Tomorrow will be .
, % of the Moon is Illuminated

Today's Extremes

State Highs State Lows

Community

WunderPhotos

Upload Photos

1,774,190 photos uploaded!

WunderBlogs® & News

Nearby

Air Quality

  Air Quality AQ Index Pollutant
Not available.

Snow Depth

Station Depth Elevation

Earthquake Activity

City Distance Mag. Time & Date
Minimum magnitude displayed is 2.5.

Coastal Water Temperatures

Place Temperature

Nearby Weather Stations